Time;durP1;ratioP1;P1;durP2;ratioP2;P2;SDS_P1;SDS_P2;PMS_P1;PMS_P2;Temp;Humidity;BMP_temperature;BMP_pressure;BME280_temperature;BME280_humidity;BME280_pressure;Samples;Min_cycle;Max_cycle;Signal;HPM_P1;HPM_P2
2023/10/14 00:00:47;;;;;;;5.13;4.63;;;21.10;47.70;;;;;;4973219;28;20411;-67
2023/10/14 00:03:29;;;;;;;5.17;4.67;;;21.20;48.80;;;;;;4973003;28;20423;-67
2023/10/14 00:05:55;;;;;;;5.00;4.50;;;21.10;49.50;;;;;;4973258;28;20415;-68
2023/10/14 00:08:24;;;;;;;4.73;4.20;;;21.00;49.40;;;;;;4969620;28;20522;-67
2023/10/14 00:10:50;;;;;;;5.53;5.13;;;21.00;50.10;;;;;;4972350;28;20964;-67
2023/10/14 00:13:16;;;;;;;6.17;5.60;;;21.00;50.60;;;;;;4972981;28;20430;-67
2023/10/14 00:15:43;;;;;;;10.03;4.70;;;21.00;51.50;;;;;;4973170;28;20172;-67
2023/10/14 00:18:08;;;;;;;4.70;4.30;;;21.00;52.20;;;;;;4973117;28;20428;-67
2023/10/14 00:20:37;;;;;;;4.90;4.50;;;21.00;52.80;;;;;;4972808;28;20450;-66
2023/10/14 00:23:04;;;;;;;7.00;6.20;;;21.10;56.00;;;;;;4972793;28;20169;-67
2023/10/14 00:25:33;;;;;;;6.47;5.83;;;21.10;58.80;;;;;;4972222;28;20443;-67
2023/10/14 00:28:01;;;;;;;8.10;6.23;;;21.10;60.30;;;;;;4972958;28;20467;-67
2023/10/14 00:30:31;;;;;;;6.97;6.23;;;21.20;62.30;;;;;;4975782;28;20435;-67
2023/10/14 00:32:57;;;;;;;10.53;6.23;;;21.20;65.50;;;;;;4976521;28;20519;-67
2023/10/14 00:35:24;;;;;;;7.43;6.53;;;21.20;70.00;;;;;;4976726;28;20956;-67
2023/10/14 00:37:52;;;;;;;9.60;6.13;;;21.10;74.60;;;;;;4976681;28;20626;-67
2023/10/14 00:40:24;;;;;;;7.40;6.70;;;21.00;74.60;;;;;;4975828;28;20510;-67
2023/10/14 00:42:51;;;;;;;9.83;5.90;;;20.90;75.10;;;;;;4969765;28;20874;-68
2023/10/14 00:45:20;;;;;;;6.33;5.80;;;20.90;74.70;;;;;;4976627;28;20427;-67
2023/10/14 00:47:49;;;;;;;7.13;5.60;;;20.90;74.70;;;;;;4976607;28;20412;-67
2023/10/14 00:52:54;;;;;;;10.87;5.50;;;21.00;75.30;;;;;;4976367;28;20423;-67
2023/10/14 00:55:24;;;;;;;6.00;5.37;;;20.90;80.00;;;;;;4976476;28;20420;-67
2023/10/14 00:57:59;;;;;;;8.37;6.73;;;20.90;84.80;;;;;;4974919;28;20471;-67
2023/10/14 01:00:37;;;;;;;7.40;6.70;;;20.80;89.80;;;;;;4976188;28;20442;-67
2023/10/14 01:03:09;;;;;;;8.03;7.00;;;20.70;95.50;;;;;;4975428;28;20574;-67
2023/10/14 01:05:38;;;;;;;13.43;7.40;;;20.50;99.90;;;;;;4977012;28;20462;-67
2023/10/14 01:08:11;;;;;;;9.93;7.07;;;20.20;99.90;;;;;;4974507;28;20436;-67
2023/10/14 01:10:36;;;;;;;7.53;6.40;;;20.10;99.90;;;;;;4976120;28;20474;-67
2023/10/14 01:13:07;;;;;;;9.73;8.30;;;20.10;99.90;;;;;;4975787;28;20419;-67
2023/10/14 01:15:34;;;;;;;7.70;6.90;;;20.10;99.90;;;;;;4974804;28;20183;-67
2023/10/14 01:18:01;;;;;;;9.63;7.47;;;20.10;99.90;;;;;;4975997;28;20415;-67
2023/10/14 01:20:35;;;;;;;8.80;8.10;;;20.00;99.90;;;;;;4975809;28;20451;-67
2023/10/14 01:23:07;;;;;;;10.17;8.10;;;20.00;99.90;;;;;;4974404;28;20944;-67
2023/10/14 01:25:33;;;;;;;9.30;8.50;;;19.90;99.90;;;;;;4974951;28;20979;-66
2023/10/14 01:27:59;;;;;;;8.97;8.00;;;19.90;99.90;;;;;;4975064;28;20526;-66
2023/10/14 01:30:26;;;;;;;9.23;7.13;;;19.80;99.90;;;;;;4975669;28;20198;-66
2023/10/14 01:32:56;;;;;;;9.50;8.57;;;19.70;99.90;;;;;;4975462;28;20430;-66
2023/10/14 01:35:31;;;;;;;9.07;8.27;;;19.70;99.90;;;;;;4975793;28;20421;-67
2023/10/14 01:37:58;;;;;;;10.10;9.10;;;19.60;99.90;;;;;;4974728;28;20784;-67
2023/10/14 01:40:35;;;;;;;8.77;7.87;;;19.60;99.90;;;;;;4974920;28;20534;-67
2023/10/14 01:43:08;;;;;;;8.87;8.07;;;19.60;99.90;;;;;;4975356;28;21011;-66
2023/10/14 01:46:00;;;;;;;11.07;7.80;;;19.60;99.90;;;;;;4975523;28;20423;-66
2023/10/14 01:48:30;;;;;;;10.00;8.50;;;19.50;99.90;;;;;;4975408;28;20459;-66
2023/10/14 01:50:57;;;;;;;8.40;7.47;;;19.50;99.90;;;;;;4975296;28;20419;-66
2023/10/14 01:53:27;;;;;;;11.90;8.70;;;19.40;99.90;;;;;;4974996;28;21031;-66
2023/10/14 01:55:55;;;;;;;8.90;8.00;;;19.40;99.90;;;;;;4972227;28;20434;-66
2023/10/14 01:58:22;;;;;;;9.50;8.57;;;19.30;99.90;;;;;;4974527;28;20770;-67
2023/10/14 02:00:56;;;;;;;8.97;7.27;;;19.30;99.90;;;;;;4975156;28;20431;-67
2023/10/14 02:03:22;;;;;;;8.97;8.17;;;19.30;99.90;;;;;;4974924;28;20941;-67
2023/10/14 02:05:51;;;;;;;9.63;7.80;;;19.20;99.90;;;;;;4975105;28;20447;-66
2023/10/14 02:08:21;;;;;;;8.30;7.60;;;19.20;99.90;;;;;;4975048;28;20412;-66
2023/10/14 02:10:47;;;;;;;9.07;8.27;;;19.20;99.90;;;;;;4975105;28;20416;-66
2023/10/14 02:13:21;;;;;;;8.40;7.70;;;19.20;99.90;;;;;;4972363;28;20438;-66
2023/10/14 02:15:47;;;;;;;9.20;8.30;;;19.20;99.90;;;;;;4973644;28;20861;-66
2023/10/14 02:18:16;;;;;;;11.57;8.20;;;19.20;99.90;;;;;;4974741;28;20502;-66
2023/10/14 02:20:56;;;;;;;9.50;8.07;;;19.10;99.90;;;;;;4974825;28;20420;-66
2023/10/14 02:23:43;;;;;;;8.53;7.83;;;19.20;99.90;;;;;;4974727;28;20481;-66
2023/10/14 02:26:30;;;;;;;8.20;7.40;;;19.20;99.90;;;;;;4974840;28;20510;-67
2023/10/14 02:28:57;;;;;;;9.43;8.63;;;19.20;99.90;;;;;;4973274;28;20591;-66
2023/10/14 02:31:30;;;;;;;10.40;7.73;;;19.20;99.90;;;;;;4974592;28;20431;-66
2023/10/14 02:34:05;;;;;;;9.03;8.17;;;19.20;99.90;;;;;;4973945;28;20937;-66
2023/10/14 02:36:35;;;;;;;9.17;8.33;;;19.20;99.90;;;;;;4974457;28;20487;-67
2023/10/14 02:39:02;;;;;;;9.60;8.13;;;19.30;99.90;;;;;;4974425;28;20971;-66
2023/10/14 02:41:29;;;;;;;7.83;7.13;;;19.30;99.90;;;;;;4974443;28;20455;-66
2023/10/14 02:46:41;;;;;;;9.40;8.70;;;19.30;99.90;;;;;;4973469;28;20423;-66
2023/10/14 02:49:07;;;;;;;10.30;8.57;;;19.20;99.90;;;;;;4969982;28;20443;-66
2023/10/14 02:51:41;;;;;;;13.90;9.23;;;19.30;99.90;;;;;;4973625;28;20424;-66
2023/10/14 02:54:26;;;;;;;8.33;7.40;;;19.30;99.90;;;;;;4972811;28;20263;-67
2023/10/14 02:59:19;;;;;;;9.10;8.40;;;19.40;99.90;;;;;;4974297;28;20438;-65
2023/10/14 03:02:09;;;;;;;12.33;8.30;;;19.40;99.90;;;;;;4972796;28;20483;-66
2023/10/14 03:04:39;;;;;;;9.83;8.33;;;19.50;99.90;;;;;;4972788;28;20450;-66
2023/10/14 03:07:07;;;;;;;9.50;8.60;;;19.50;99.90;;;;;;4974088;28;20426;-66
2023/10/14 03:09:34;;;;;;;8.83;8.03;;;19.50;99.90;;;;;;4973853;28;20512;-66
2023/10/14 03:12:00;;;;;;;10.77;8.37;;;19.50;99.90;;;;;;4973831;28;20474;-66
2023/10/14 03:14:27;;;;;;;9.20;8.40;;;19.50;99.90;;;;;;4973625;28;20952;-66
2023/10/14 03:16:53;;;;;;;10.07;7.40;;;19.50;99.90;;;;;;4973837;28;20933;-66
2023/10/14 03:19:19;;;;;;;10.33;9.00;;;19.50;99.90;;;;;;4973776;28;20470;-66
2023/10/14 03:21:58;;;;;;;9.77;8.80;;;19.50;99.90;;;;;;4972003;28;20192;-66
2023/10/14 03:24:25;;;;;;;10.43;8.60;;;19.50;99.90;;;;;;4973537;28;20183;-66
2023/10/14 03:26:57;;;;;;;9.43;8.60;;;19.50;99.90;;;;;;4973678;28;20427;-66
2023/10/14 03:29:25;;;;;;;8.63;7.80;;;19.40;99.90;;;;;;4973693;28;20444;-66
2023/10/14 03:31:50;;;;;;;10.73;9.47;;;19.40;99.90;;;;;;4973585;28;20424;-66
2023/10/14 03:34:17;;;;;;;9.47;8.67;;;19.40;99.90;;;;;;4973271;28;20415;-66
2023/10/14 03:36:43;;;;;;;9.83;8.83;;;19.40;99.90;;;;;;4972854;28;20267;-66
2023/10/14 03:39:40;;;;;;;13.67;8.47;;;19.40;99.90;;;;;;4973254;28;20517;-66
2023/10/14 03:42:10;;;;;;;12.47;8.70;;;19.40;99.90;;;;;;4973436;28;20474;-65
2023/10/14 03:44:41;;;;;;;11.23;8.73;;;19.40;99.90;;;;;;4972039;28;20416;-66
2023/10/14 03:47:14;;;;;;;12.93;9.33;;;19.40;99.90;;;;;;4973549;28;20403;-66
2023/10/14 03:49:41;;;;;;;12.73;8.43;;;19.40;99.90;;;;;;4973311;28;21059;-66
2023/10/14 03:52:10;;;;;;;13.67;9.90;;;19.40;99.90;;;;;;4973292;28;20430;-66
2023/10/14 03:54:41;;;;;;;10.33;7.90;;;19.40;99.90;;;;;;4972341;28;20484;-66
2023/10/14 03:57:07;;;;;;;9.63;8.77;;;19.40;99.90;;;;;;4973277;28;20494;-66
2023/10/14 03:59:33;;;;;;;8.93;8.23;;;19.40;99.90;;;;;;4973202;28;20446;-66
2023/10/14 04:02:05;;;;;;;12.70;8.73;;;19.40;99.90;;;;;;4973164;28;20796;-65
2023/10/14 04:04:31;;;;;;;11.30;9.73;;;19.40;99.90;;;;;;4977148;28;20523;-66
2023/10/14 04:09:43;;;;;;;8.27;7.53;;;19.30;99.90;;;;;;4979550;28;20447;-66
2023/10/14 04:12:12;;;;;;;10.87;8.93;;;19.30;99.90;;;;;;4979726;28;20534;-66
2023/10/14 04:14:38;;;;;;;11.80;9.33;;;19.30;99.90;;;;;;4979577;28;20920;-66
2023/10/14 04:17:18;;;;;;;10.00;9.00;;;19.40;99.90;;;;;;4979568;28;20427;-66
2023/10/14 04:22:31;;;;;;;9.80;8.90;;;19.40;99.90;;;;;;4977721;28;20465;-66
2023/10/14 04:25:18;;;;;;;10.53;8.47;;;19.30;99.90;;;;;;4979193;28;20430;-66
2023/10/14 04:30:38;;;;;;;10.17;9.10;;;19.40;99.90;;;;;;4960386;28;20457;-66
2023/10/14 04:33:16;;;;;;;12.00;8.70;;;19.30;99.90;;;;;;4959832;28;20491;-66
2023/10/14 04:35:58;;;;;;;10.33;9.30;;;19.30;99.90;;;;;;4960160;28;20432;-66
2023/10/14 04:38:37;;;;;;;12.30;10.10;;;19.30;99.90;;;;;;4969119;28;20458;-66
2023/10/14 04:41:03;;;;;;;11.80;9.20;;;19.20;99.90;;;;;;4979318;28;20454;-66
2023/10/14 04:45:54;;;;;;;8.73;7.60;;;19.20;99.90;;;;;;4979285;28;20168;-66
2023/10/14 04:48:51;;;;;;;10.27;8.50;;;19.10;99.90;;;;;;4979194;28;20164;-66
2023/10/14 04:51:15;;;;;;;10.63;7.63;;;19.00;99.90;;;;;;4979001;28;20427;-65
2023/10/14 04:53:49;;;;;;;9.27;8.20;;;18.70;99.90;;;;;;4979016;28;20848;-66
2023/10/14 04:56:22;;;;;;;9.50;8.63;;;18.60;99.90;;;;;;4978242;28;20439;-66
2023/10/14 04:58:52;;;;;;;10.10;8.60;;;18.50;99.90;;;;;;4979304;28;20529;-66
2023/10/14 05:01:18;;;;;;;8.93;8.03;;;18.40;99.90;;;;;;4979117;28;20455;-66
2023/10/14 05:03:44;;;;;;;8.77;7.70;;;18.40;99.90;;;;;;4978825;28;20948;-66
2023/10/14 05:08:46;;;;;;;8.73;7.83;;;18.50;99.90;;;;;;4979046;28;20438;-66
2023/10/14 05:11:13;;;;;;;9.87;8.40;;;18.60;99.90;;;;;;4979166;28;20419;-66
2023/10/14 05:13:42;;;;;;;11.17;7.50;;;18.70;99.90;;;;;;4977708;28;20442;-66
2023/10/14 05:16:26;;;;;;;11.23;8.30;;;18.70;99.90;;;;;;4975675;28;20455;-66
2023/10/14 05:19:00;;;;;;;9.03;7.03;;;18.80;99.90;;;;;;4990387;23;20474;-66
2023/10/14 05:21:36;;;;;;;9.67;7.37;;;18.80;99.90;;;;;;4975716;28;20475;-67
2023/10/14 05:24:03;;;;;;;7.00;6.30;;;18.90;99.90;;;;;;4975151;28;20420;-67
2023/10/14 05:26:35;;;;;;;7.93;6.87;;;18.90;99.90;;;;;;4975872;28;20948;-67
2023/10/14 05:29:16;;;;;;;7.50;6.80;;;18.90;99.90;;;;;;4975083;28;20501;-67
2023/10/14 05:31:42;;;;;;;6.80;6.20;;;18.90;99.90;;;;;;4976042;28;20999;-67
2023/10/14 05:34:09;;;;;;;7.27;6.57;;;18.90;99.90;;;;;;4975595;28;20434;-66
2023/10/14 05:36:36;;;;;;;6.10;5.50;;;19.00;99.90;;;;;;4975716;28;20488;-67
2023/10/14 05:39:02;;;;;;;6.53;5.73;;;19.00;99.90;;;;;;4975529;28;20787;-66
2023/10/14 05:41:28;;;;;;;8.83;5.77;;;19.00;99.90;;;;;;4974649;28;20979;-66
2023/10/14 05:43:54;;;;;;;7.53;5.77;;;19.10;99.90;;;;;;4974299;28;20808;-67
2023/10/14 05:46:20;;;;;;;10.43;6.83;;;19.10;99.90;;;;;;4973803;28;20438;-67
2023/10/14 05:48:46;;;;;;;6.90;6.30;;;19.10;99.90;;;;;;4975335;28;20176;-67
2023/10/14 05:51:11;;;;;;;8.93;6.13;;;19.20;99.90;;;;;;4975434;28;20169;-67
2023/10/14 05:53:37;;;;;;;7.50;6.40;;;19.20;99.90;;;;;;4975121;28;20498;-67
2023/10/14 05:56:09;;;;;;;8.13;7.30;;;19.40;99.90;;;;;;4975236;28;20168;-67
2023/10/14 05:58:36;;;;;;;13.43;8.90;;;19.10;99.90;;;;;;4975256;28;20145;-67
2023/10/14 06:01:10;;;;;;;7.20;6.47;;;19.10;99.90;;;;;;4973306;28;20496;-67
2023/10/14 06:03:36;;;;;;;8.10;7.37;;;19.00;99.90;;;;;;4974445;28;20427;-68
2023/10/14 06:06:02;;;;;;;7.30;6.60;;;19.00;99.90;;;;;;4975166;28;20809;-66
2023/10/14 06:08:32;;;;;;;10.50;7.20;;;19.00;99.90;;;;;;4975053;28;20427;-66
2023/10/14 06:10:59;;;;;;;7.80;7.03;;;19.00;99.90;;;;;;4974203;28;20615;-66
2023/10/14 06:13:27;;;;;;;7.67;6.87;;;18.90;99.90;;;;;;4971484;28;20916;-67
2023/10/14 06:15:53;;;;;;;7.27;6.57;;;18.90;99.90;;;;;;4970723;28;20430;-67
2023/10/14 06:18:18;;;;;;;7.40;6.70;;;18.80;99.90;;;;;;4973160;28;20423;-67
2023/10/14 06:20:49;;;;;;;7.63;6.83;;;18.90;99.90;;;;;;4972936;28;20226;-66
2023/10/14 06:23:14;;;;;;;9.50;8.50;;;18.80;99.90;;;;;;4974491;28;20172;-67
2023/10/14 06:25:40;;;;;;;8.60;7.80;;;18.80;99.90;;;;;;4974882;28;20427;-67
2023/10/14 06:28:07;;;;;;;9.20;7.47;;;18.80;99.90;;;;;;4973567;28;20179;-68
2023/10/14 06:30:33;;;;;;;10.50;7.97;;;18.80;99.90;;;;;;4974691;28;20661;-67
2023/10/14 06:33:03;;;;;;;9.07;7.50;;;18.80;99.90;;;;;;4973498;28;20515;-66
2023/10/14 06:35:31;;;;;;;17.90;6.87;;;18.90;99.90;;;;;;4974553;28;20231;-67
2023/10/14 06:37:58;;;;;;;7.90;7.20;;;18.90;99.90;;;;;;4974477;28;20428;-67
2023/10/14 06:40:24;;;;;;;8.57;6.30;;;19.00;99.90;;;;;;4974494;28;20443;-67
2023/10/14 06:42:50;;;;;;;8.83;7.70;;;19.00;99.90;;;;;;4974051;28;20463;-67
2023/10/14 06:45:21;;;;;;;11.37;8.83;;;18.90;99.90;;;;;;4974355;28;20844;-67
2023/10/14 06:47:56;;;;;;;8.90;7.53;;;19.00;99.90;;;;;;4973596;28;20176;-66
2023/10/14 06:50:25;;;;;;;9.00;7.80;;;19.10;99.90;;;;;;4974084;28;20435;-67
2023/10/14 06:53:00;;;;;;;9.23;7.00;;;19.20;99.90;;;;;;4973944;28;20423;-67
2023/10/14 06:55:37;;;;;;;8.50;7.80;;;19.10;99.90;;;;;;4974336;28;20422;-67
2023/10/14 06:58:06;;;;;;;9.43;6.60;;;19.10;99.90;;;;;;4974189;28;20422;-66
2023/10/14 07:00:32;;;;;;;8.07;7.27;;;19.00;99.90;;;;;;4974062;28;20436;-67
2023/10/14 07:03:02;;;;;;;8.43;7.57;;;19.10;99.90;;;;;;4973667;28;20818;-67
2023/10/14 07:05:29;;;;;;;11.23;6.90;;;19.10;99.90;;;;;;4970680;28;20526;-66
2023/10/14 07:07:57;;;;;;;8.53;7.73;;;19.10;99.90;;;;;;4972694;28;20446;-67
2023/10/14 07:10:33;;;;;;;7.57;6.87;;;19.00;99.90;;;;;;4980320;28;20516;-67
2023/10/14 07:13:03;;;;;;;8.73;7.20;;;19.00;99.90;;;;;;4983456;28;20450;-66
2023/10/14 07:15:32;;;;;;;8.50;6.90;;;19.00;99.90;;;;;;4982398;28;20818;-67
2023/10/14 07:17:59;;;;;;;7.93;7.20;;;19.10;99.90;;;;;;4986126;28;20435;-67
2023/10/14 07:20:29;;;;;;;8.70;7.80;;;19.30;99.90;;;;;;4979535;28;20533;-67
2023/10/14 07:22:55;;;;;;;9.73;6.87;;;19.60;99.90;;;;;;4973468;28;20470;-67
2023/10/14 07:25:23;;;;;;;6.20;5.60;;;19.70;99.90;;;;;;4973821;28;20415;-67
2023/10/14 07:27:51;;;;;;;6.47;5.87;;;20.00;99.90;;;;;;4974390;28;20987;-66
2023/10/14 07:30:18;;;;;;;6.30;5.27;;;20.60;99.90;;;;;;4991658;28;21029;-67
2023/10/14 07:32:46;;;;;;;6.33;4.80;;;21.30;99.90;;;;;;4991399;28;20803;-67
2023/10/14 07:35:16;;;;;;;6.90;5.50;;;21.70;99.90;;;;;;4989290;28;20480;-66
2023/10/14 07:37:44;;;;;;;11.33;4.90;;;21.90;99.90;;;;;;4965371;28;20427;-67
2023/10/14 07:40:11;;;;;;;6.40;5.50;;;22.00;99.90;;;;;;4973437;28;20436;-67
2023/10/14 07:42:40;;;;;;;6.23;5.30;;;22.10;99.90;;;;;;4973049;28;20455;-67
2023/10/14 07:45:10;;;;;;;5.53;4.70;;;22.20;99.90;;;;;;4971608;28;20530;-67
2023/10/14 07:47:37;;;;;;;7.87;4.47;;;22.30;99.90;;;;;;4972560;28;20440;-69
2023/10/14 07:50:09;;;;;;;7.87;5.30;;;22.00;99.90;;;;;;4972622;28;20463;-66
2023/10/14 07:52:35;;;;;;;6.30;5.00;;;21.80;99.90;;;;;;4973085;28;20434;-69
2023/10/14 07:55:02;;;;;;;6.73;6.10;;;21.70;99.90;;;;;;4973363;28;20815;-67
2023/10/14 07:57:27;;;;;;;9.83;5.03;;;21.30;99.90;;;;;;4973367;28;20427;-67
2023/10/14 07:59:59;;;;;;;6.37;5.77;;;21.20;99.90;;;;;;4973204;28;20523;-69
2023/10/14 08:02:26;;;;;;;7.67;5.23;;;20.90;99.90;;;;;;4982405;28;20287;-67
2023/10/14 08:04:53;;;;;;;6.80;5.70;;;20.60;99.90;;;;;;4972209;28;20546;-66
2023/10/14 08:07:19;;;;;;;6.40;5.80;;;20.20;99.90;;;;;;4972947;28;20419;-67
2023/10/14 08:09:44;;;;;;;8.43;6.33;;;20.00;99.90;;;;;;4972979;28;20506;-67
2023/10/14 08:12:10;;;;;;;4.27;3.87;;;19.90;99.90;;;;;;4972047;28;20420;-67
2023/10/14 08:14:35;;;;;;;4.70;4.30;;;19.70;99.90;;;;;;4972845;28;20172;-67
2023/10/14 08:17:01;;;;;;;5.30;4.63;;;19.20;99.90;;;;;;4973110;28;20180;-67
2023/10/14 08:19:26;;;;;;;6.43;4.53;;;18.70;99.90;;;;;;4972404;28;20215;-68
2023/10/14 08:21:52;;;;;;;6.87;3.80;;;18.30;99.90;;;;;;4971778;28;20215;-67
2023/10/14 08:24:20;;;;;;;5.87;3.70;;;18.10;99.90;;;;;;4971919;28;20183;-67
2023/10/14 08:26:46;;;;;;;4.33;3.70;;;18.20;99.90;;;;;;4973015;28;20258;-67
2023/10/14 08:29:12;;;;;;;4.10;3.20;;;18.80;99.90;;;;;;4972867;28;20924;-67
2023/10/14 08:31:38;;;;;;;4.40;3.23;;;19.30;99.90;;;;;;4972990;28;20464;-67
2023/10/14 08:34:07;;;;;;;3.33;3.03;;;19.20;99.90;;;;;;4972724;28;20558;-67
2023/10/14 08:36:32;;;;;;;3.80;3.03;;;18.90;99.90;;;;;;4972040;28;20187;-67
2023/10/14 08:38:58;;;;;;;3.17;2.87;;;18.90;99.90;;;;;;4972711;28;20538;-67
2023/10/14 08:41:26;;;;;;;4.27;3.87;;;19.80;99.90;;;;;;4972848;28;20266;-67
2023/10/14 08:43:56;;;;;;;3.93;2.67;;;21.40;99.90;;;;;;4972571;28;20173;-67
2023/10/14 08:46:29;;;;;;;3.97;2.67;;;22.50;99.90;;;;;;4972993;28;20940;-67
2023/10/14 08:48:55;;;;;;;4.67;4.00;;;23.50;99.90;;;;;;4972872;28;20439;-68
2023/10/14 08:51:24;;;;;;;9.37;5.27;;;25.00;99.90;;;;;;4975353;28;20429;-68
2023/10/14 08:53:53;;;;;;;3.80;2.70;;;25.60;99.90;;;;;;4975270;28;20875;-68
2023/10/14 08:56:19;;;;;;;3.70;3.03;;;26.10;99.70;;;;;;4976386;28;20490;-68
2023/10/14 08:58:45;;;;;;;4.60;3.27;;;26.90;97.20;;;;;;4976271;28;20821;-68
2023/10/14 09:01:15;;;;;;;5.70;4.23;;;27.50;95.20;;;;;;4976294;28;20572;-68
2023/10/14 09:03:44;;;;;;;4.87;4.50;;;28.10;93.30;;;;;;4976079;28;20924;-68
2023/10/14 09:06:11;;;;;;;4.70;4.27;;;27.50;93.10;;;;;;4976309;28;20916;-68
2023/10/14 09:08:36;;;;;;;5.27;4.60;;;27.50;93.50;;;;;;4975258;28;20427;-68
2023/10/14 09:11:03;;;;;;;4.90;4.50;;;27.10;93.10;;;;;;4976092;28;20426;-67
2023/10/14 09:13:29;;;;;;;6.73;4.97;;;26.00;95.30;;;;;;4975899;28;20180;-68
2023/10/14 09:15:57;;;;;;;4.60;4.17;;;24.40;99.00;;;;;;4975212;28;20412;-68
2023/10/14 09:18:27;;;;;;;5.27;4.70;;;23.40;99.90;;;;;;4990783;28;20459;-68
2023/10/14 09:20:54;;;;;;;5.20;4.80;;;22.60;99.90;;;;;;4975832;28;20439;-68
2023/10/14 09:23:24;;;;;;;10.93;2.87;;;22.20;99.90;;;;;;4975690;28;20531;-67
2023/10/14 09:25:52;;;;;;;4.77;1.80;;;21.00;99.90;;;;;;4972332;28;20436;-65
2023/10/14 09:28:20;;;;;;;3.40;2.27;;;19.00;99.90;;;;;;4973992;28;20432;-65
2023/10/14 09:30:50;;;;;;;2.53;2.30;;;17.70;99.90;;;;;;4975668;28;20447;-66
2023/10/14 09:33:21;;;;;;;2.40;1.70;;;17.10;99.90;;;;;;4975594;28;20443;-65
2023/10/14 09:35:49;;;;;;;2.20;2.00;;;16.90;99.90;;;;;;4975849;28;20513;-66
2023/10/14 09:38:19;;;;;;;4.20;2.10;;;16.70;99.90;;;;;;4975704;28;20418;-65
2023/10/14 09:40:50;;;;;;;2.10;1.97;;;16.60;99.90;;;;;;4975556;28;20439;-65
2023/10/14 09:43:17;;;;;;;2.70;1.90;;;16.50;99.90;;;;;;4974325;28;20498;-65
2023/10/14 09:45:44;;;;;;;2.10;2.00;;;16.40;99.90;;;;;;4975455;28;20430;-65
2023/10/14 09:48:11;;;;;;;2.27;2.00;;;16.30;99.90;;;;;;4975516;28;20932;-66
2023/10/14 09:50:37;;;;;;;2.87;1.93;;;16.40;99.90;;;;;;4975511;28;20439;-66
2023/10/14 09:53:04;;;;;;;1.73;1.63;;;16.30;99.90;;;;;;4975123;28;20415;-64
2023/10/14 09:55:30;;;;;;;2.00;1.57;;;16.20;99.90;;;;;;4975305;28;20439;-65
2023/10/14 09:57:58;;;;;;;1.80;1.70;;;16.30;99.90;;;;;;4975280;28;20427;-65
2023/10/14 10:00:26;;;;;;;1.83;1.73;;;16.20;99.90;;;;;;4973733;28;20452;-65
2023/10/14 10:02:52;;;;;;;1.30;1.20;;;16.10;99.90;;;;;;4974690;28;20485;-65
2023/10/14 10:05:26;;;;;;;2.20;2.10;;;16.10;99.90;;;;;;4975240;28;20969;-65
2023/10/14 10:07:57;;;;;;;2.63;2.43;;;16.20;99.90;;;;;;4975304;28;20446;-66
2023/10/14 10:10:30;;;;;;;1.40;1.30;;;16.40;99.90;;;;;;4974979;28;20439;-65
2023/10/14 10:12:57;;;;;;;2.67;2.00;;;16.40;99.90;;;;;;4974789;28;20428;-66
2023/10/14 10:15:24;;;;;;;2.57;1.40;;;16.50;99.90;;;;;;4974244;28;20941;-65
2023/10/14 10:18:04;;;;;;;1.37;1.30;;;16.60;99.90;;;;;;4971035;28;20435;-65
2023/10/14 10:20:39;;;;;;;1.40;1.30;;;16.80;99.90;;;;;;4974546;28;20837;-65
2023/10/14 10:23:07;;;;;;;1.27;1.17;;;17.00;99.90;;;;;;4974574;28;20470;-66
2023/10/14 10:25:35;;;;;;;1.50;1.40;;;17.20;99.90;;;;;;4974771;28;20790;-66
2023/10/14 10:28:26;;;;;;;1.50;1.27;;;17.20;99.90;;;;;;4974697;28;20447;-66
2023/10/14 10:30:57;;;;;;;1.30;1.20;;;17.30;99.90;;;;;;4974587;28;20443;-66
2023/10/14 10:33:45;;;;;;;1.77;1.60;;;17.20;99.90;;;;;;4973487;28;20444;-66
2023/10/14 10:36:12;;;;;;;1.53;1.27;;;17.50;99.90;;;;;;4974639;28;20435;-66
2023/10/14 10:38:38;;;;;;;1.40;1.30;;;17.70;99.90;;;;;;4974521;28;20428;-66
2023/10/14 10:41:26;;;;;;;1.40;1.30;;;17.70;99.90;;;;;;4974275;28;20436;-66
2023/10/14 10:44:03;;;;;;;1.73;1.63;;;17.90;99.90;;;;;;4972930;28;20557;-66
2023/10/14 10:46:29;;;;;;;1.70;1.47;;;18.00;99.90;;;;;;4974454;28;20443;-68
2023/10/14 10:48:55;;;;;;;1.37;1.27;;;17.90;99.90;;;;;;4973313;28;20465;-66
2023/10/14 10:51:21;;;;;;;1.60;1.47;;;17.60;99.90;;;;;;4974155;28;20980;-66
2023/10/14 10:53:49;;;;;;;2.90;1.40;;;17.40;99.90;;;;;;4973285;28;20184;-66
2023/10/14 10:56:19;;;;;;;1.30;1.10;;;17.30;99.90;;;;;;4974166;28;20431;-66
2023/10/14 10:58:45;;;;;;;1.63;1.53;;;17.10;99.90;;;;;;4974252;28;20509;-66
2023/10/14 11:01:12;;;;;;;1.70;1.60;;;16.90;99.90;;;;;;4974160;28;20415;-66
2023/10/14 11:03:38;;;;;;;1.77;1.37;;;16.70;99.90;;;;;;4973941;28;20172;-66
2023/10/14 11:06:04;;;;;;;2.80;1.80;;;16.70;99.90;;;;;;4973128;28;20466;-65
2023/10/14 11:08:30;;;;;;;1.57;1.47;;;16.60;99.90;;;;;;4973795;28;20574;-66
2023/10/14 11:10:57;;;;;;;3.00;1.60;;;16.40;99.90;;;;;;4973898;28;20419;-65
2023/10/14 11:13:23;;;;;;;1.67;1.57;;;16.30;99.90;;;;;;4973251;28;20798;-65
2023/10/14 11:15:50;;;;;;;1.83;1.20;;;16.10;99.90;;;;;;4973896;28;20423;-66
2023/10/14 11:18:18;;;;;;;1.27;1.17;;;15.80;99.90;;;;;;4973918;28;20176;-65
2023/10/14 11:20:45;;;;;;;1.67;1.57;;;15.70;99.90;;;;;;4996894;23;20522;-66
2023/10/14 11:23:12;;;;;;;1.90;1.47;;;15.60;99.90;;;;;;4972253;28;20477;-66
2023/10/14 11:26:03;;;;;;;1.80;1.70;;;15.50;99.90;;;;;;4973585;28;20502;-66
2023/10/14 11:28:29;;;;;;;1.70;1.60;;;15.60;99.90;;;;;;4973915;28;20416;-65
2023/10/14 11:30:57;;;;;;;2.40;1.70;;;15.50;99.90;;;;;;4973582;28;20454;-66
2023/10/14 11:33:24;;;;;;;2.40;1.40;;;15.60;99.90;;;;;;4973375;28;20186;-66
2023/10/14 11:35:50;;;;;;;1.67;1.57;;;15.50;99.90;;;;;;4973519;28;21023;-66
2023/10/14 11:38:16;;;;;;;1.40;1.23;;;15.50;99.90;;;;;;4973740;28;20420;-66
2023/10/14 11:40:48;;;;;;;4.20;1.20;;;15.60;99.90;;;;;;4971676;28;20199;-66
2023/10/14 11:43:16;;;;;;;1.50;1.30;;;15.70;99.90;;;;;;4972112;28;20375;-66
2023/10/14 11:45:44;;;;;;;1.83;1.20;;;16.00;99.90;;;;;;4973485;28;20446;-66
2023/10/14 11:48:20;;;;;;;1.50;1.40;;;16.20;99.90;;;;;;4973413;28;20431;-66
2023/10/14 11:50:47;;;;;;;1.10;1.00;;;16.30;99.90;;;;;;4973295;28;20450;-66
2023/10/14 11:53:13;;;;;;;2.77;1.80;;;16.10;99.90;;;;;;4973050;28;20423;-66
2023/10/14 11:55:38;;;;;;;1.50;1.40;;;16.00;99.90;;;;;;4973356;28;20431;-66
2023/10/14 11:58:04;;;;;;;1.27;1.17;;;15.90;99.90;;;;;;4971598;28;20195;-66
2023/10/14 12:00:30;;;;;;;1.83;1.40;;;15.80;99.90;;;;;;4973196;28;20323;-66
2023/10/14 12:02:56;;;;;;;3.20;2.00;;;15.80;99.90;;;;;;4972885;28;20451;-66
2023/10/14 12:05:22;;;;;;;1.00;0.90;;;15.80;99.90;;;;;;4973331;28;20420;-66
2023/10/14 12:07:47;;;;;;;1.30;1.30;;;15.70;99.90;;;;;;4973235;28;20255;-66
2023/10/14 12:10:13;;;;;;;1.10;1.00;;;15.60;99.90;;;;;;4971432;28;20215;-66
2023/10/14 12:12:39;;;;;;;2.37;1.50;;;15.60;99.90;;;;;;4972875;28;20279;-66
2023/10/14 12:15:09;;;;;;;1.20;1.10;;;15.60;99.90;;;;;;4973194;28;20579;-67
2023/10/14 12:17:35;;;;;;;1.27;1.10;;;15.60;99.90;;;;;;4971414;28;20918;-63
2023/10/14 12:20:06;;;;;;;1.37;1.10;;;15.60;99.90;;;;;;4978107;28;20514;-67
2023/10/14 12:22:32;;;;;;;1.73;1.37;;;15.80;99.90;;;;;;4972691;28;20459;-67
2023/10/14 12:24:58;;;;;;;2.40;1.10;;;15.70;99.90;;;;;;4973149;28;20494;-67
2023/10/14 12:27:25;;;;;;;3.13;1.30;;;15.60;99.90;;;;;;4978113;28;20432;-64
2023/10/14 12:29:52;;;;;;;1.10;1.00;;;15.60;99.90;;;;;;4979455;28;20999;-66
2023/10/14 12:32:18;;;;;;;3.13;1.70;;;15.60;99.90;;;;;;4977432;28;20468;-65
2023/10/14 12:34:46;;;;;;;0.90;0.90;;;15.50;99.90;;;;;;4983311;28;20471;-65
2023/10/14 12:37:21;;;;;;;1.23;1.13;;;15.60;99.90;;;;;;4978954;28;20853;-65
2023/10/14 12:40:04;;;;;;;1.70;1.50;;;15.70;99.90;;;;;;4981362;28;20450;-65
2023/10/14 12:42:45;;;;;;;1.40;1.30;;;15.80;99.90;;;;;;4976575;28;20534;-65
2023/10/14 12:45:12;;;;;;;2.27;1.10;;;15.80;99.90;;;;;;4985509;28;20438;-65
2023/10/14 12:47:44;;;;;;;2.67;1.13;;;15.80;99.90;;;;;;4987628;28;20434;-66
2023/10/14 12:50:10;;;;;;;4.00;1.20;;;15.80;99.90;;;;;;4983302;28;20459;-65
2023/10/14 12:52:38;;;;;;;1.33;1.23;;;15.70;99.90;;;;;;4987412;28;20497;-66
2023/10/14 12:55:13;;;;;;;2.03;1.90;;;15.50;99.90;;;;;;4995774;28;20259;-66
2023/10/14 12:57:40;;;;;;;1.17;0.90;;;15.50;99.90;;;;;;4991053;28;20431;-66
2023/10/14 13:00:11;;;;;;;2.47;1.10;;;15.50;99.90;;;;;;4979847;28;20518;-66
2023/10/14 13:02:39;;;;;;;1.13;1.03;;;15.30;99.90;;;;;;4976112;28;20499;-67
2023/10/14 13:05:05;;;;;;;3.90;1.33;;;15.20;99.90;;;;;;4976271;28;20424;-67
2023/10/14 13:07:30;;;;;;;2.77;1.70;;;15.00;99.90;;;;;;4976061;28;20418;-66
2023/10/14 13:09:56;;;;;;;2.30;1.10;;;15.00;99.90;;;;;;4973703;28;20201;-66
2023/10/14 13:12:22;;;;;;;2.03;1.70;;;15.00;99.90;;;;;;4975857;28;20692;-67
2023/10/14 13:14:48;;;;;;;1.23;1.13;;;14.80;99.90;;;;;;4981177;28;20179;-67
2023/10/14 13:17:14;;;;;;;2.23;1.43;;;14.70;99.90;;;;;;4995522;28;20171;-66